Doyleville, Colorado
Current Conditions -  °F | °C
As of 2:35 PM on Friday 24 Oct 2014 (Local Time) from KGUC Reporting Station
Clear Clear  
Wind Chill: 63°   Ceiling: Unl
Heat Index: 63°   Visibility: 10mi
Dew Point: 28°   Wind: 5mph
Humidity: 27%   Direction: 250°WSW
Pressure: 30.41"   Gusts: NA
Location:  38.5539°N, 107.09°W
Report Text: KGUC 242035Z AUTO 25004KT 10SM CLR 17/M02 A3041 RMK AO1
Loading
Personal Weather Stations






























Interactive Weather Map
Tropical Storm Tracking
New forecast layout! Learn more

10-Day Weather Forecast

Advertisements
Track Severe Weather on mobile